Buoy 62909

sailwx.info

Track history (hours):
 
Tides and Currents Weather Stations Pressure Air Temp Water Temp Dewpoint Dewpoint Depression Visibility Wind Speed Wind Dir Waves Ship Positions

Drifting buoy 62909

Last reported at 2016-Mar-22 04:34 UTC. Time now 2016-Dec-11 10:14 UTC.
Position N 36°57' E 008°46'.
Warning: this ship's position is months out of date.

Water temperature 16.5 ° C

Date/timePositionNaut miles runAvg speedWind from/ knotsBaromVisibWave heightAir tempDewpointWater temp
2016-Mar-22 04:34N 36°57' E 008°46'0 0.0 16.5
2016-Mar-21 19:56N 36°57' E 008°46'0 0.0 17.0
2016-Mar-21 17:10N 36°57' E 008°46'0 0.0 16.5
2016-Mar-21 14:08N 36°57' E 008°46'0 2.0 15.3
2016-Mar-21 14:02N 36°58' E 008°45'0 0.1 15.3
2016-Mar-21 12:21N 36°58' E 008°46'1 0.6 16.0
2016-Mar-21 10:20N 36°58' E 008°44'0 0.0 14.5
2016-Mar-21 09:31N 36°58' E 008°44'0 0.2 14.6
2016-Mar-21 08:39N 36°58' E 008°45'6 3.3 14.6
2016-Mar-21 06:48N 37°04' E 008°46'0 0.1 15.8
2016-Mar-21 05:44N 37°04' E 008°46'0 5.8 15.8
2016-Mar-21 05:40N 37°05' E 008°46'0 0.0 15.8
2016-Mar-21 05:10N 37°05' E 008°46'0 0.0 15.8
2016-Mar-21 05:00N 37°05' E 008°46'0 0.2 15.8
2016-Mar-21 04:20N 37°04' E 008°46'0 0.0 15.8
2016-Mar-21 04:07N 37°04' E 008°46'0 0.0 15.7
2016-Mar-21 03:29N 37°04' E 008°46'0 0.1 15.8
2016-Mar-21 02:40N 37°04' E 008°47'0 0.1 15.8
2016-Mar-21 00:55N 37°05' E 008°46'0 0.0 15.9
2016-Mar-20 22:03N 37°05' E 008°46'0 4.9 16.0
2016-Mar-20 22:00N 37°05' E 008°47'0 0.1
2016-Mar-20 20:17N 37°05' E 008°46'0 3.4 15.9
2016-Mar-20 20:13N 37°05' E 008°47'0 0.0 15.9
2016-Mar-20 19:35N 37°05' E 008°47'0 0.0 16.0
2016-Mar-20 19:29N 37°05' E 008°47'0 0.1 16.1
2016-Mar-20 17:50N 37°04' E 008°47'0 0.0 16.4
2016-Mar-20 17:39N 37°04' E 008°47'1 2.8 16.5
2016-Mar-20 17:27N 37°05' E 008°46'0 0.0 16.5
2016-Mar-20 16:12N 37°05' E 008°46'0 0.6 16.6
2016-Mar-20 15:47N 37°04' E 008°46'0 0.0 16.7
2016-Mar-20 14:18N 37°04' E 008°46'0 0.0 16.4
2016-Mar-20 12:36N 37°05' E 008°46'0 4.6
2016-Mar-20 12:33N 37°04' E 008°46'0 0.0 16.4
2016-Mar-20 10:41N 37°04' E 008°47'0 0.1 16.0
2016-Mar-20 08:58N 37°04' E 008°46'1 0.6 15.5
2016-Mar-20 08:09N 37°05' E 008°46'0 0.0 15.5
2016-Mar-20 07:39N 37°05' E 008°46'1 8.7 15.5
2016-Mar-20 07:35N 37°05' E 008°46'0 0.0 15.5
2016-Mar-20 06:17N 37°05' E 008°46'0 0.6 15.5
2016-Mar-20 05:59N 37°04' E 008°46'0 0.0 15.5
2016-Mar-20 05:52N 37°04' E 008°46'0 0.0 15.5
2016-Mar-20 05:42N 37°04' E 008°46'0 0.0 15.6
2016-Mar-20 04:35N 37°04' E 008°46'0 0.2 15.5
2016-Mar-20 03:58N 37°05' E 008°46'0 0.0 15.6
2016-Mar-20 02:52N 37°05' E 008°46'0 0.0 15.7
2016-Mar-20 01:12N 37°04' E 008°46'0 0.1 15.5
2016-Mar-19 22:21N 37°05' E 008°47'0 0.0 15.6
2016-Mar-19 21:26N 37°05' E 008°47'0 0.1 15.7
2016-Mar-19 20:34N 37°05' E 008°46'0 0.2 15.8
2016-Mar-19 19:47N 37°05' E 008°47'0 0.0 15.6
2016-Mar-19 18:56N 37°05' E 008°47'0 0.0 15.7
2016-Mar-19 18:23N 37°05' E 008°47'0 0.8 15.7
2016-Mar-19 18:05N 37°04' E 008°47'0 0.0 15.7
2016-Mar-19 17:37N 37°04' E 008°47'0 0.5 15.9
2016-Mar-19 16:46N 37°05' E 008°46'0 0.0 16.0
2016-Mar-19 16:24N 37°05' E 008°46'0 0.3 16.1
2016-Mar-19 15:57N 37°05' E 008°46'0 0.2 16.2
2016-Mar-19 14:40N 37°04' E 008°46'0 0.0 16.2
2016-Mar-19 14:30N 37°04' E 008°46'0 1.4 16.2
2016-Mar-19 14:21N 37°05' E 008°46'0 0.3 16.2
2016-Mar-19 12:41N 37°04' E 008°47'4 1.7 16.1
2016-Mar-19 10:11N 37°00' E 008°48'0 0.0 15.6
2016-Mar-19 09:22N 37°00' E 008°48'0 0.0 15.6
2016-Mar-19 08:29N 37°00' E 008°48'0 0.0
2016-Mar-19 07:49N 37°00' E 008°48'   14.2
Track history (hours):
 
Tides and Currents Weather Stations Pressure Air Temp Water Temp Dewpoint Dewpoint Depression Visibility Wind Speed Wind Dir Waves Ship Positions

Drifting buoy 62909

Last reported at 2016-Mar-22 04:34 UTC. Time now 2016-Dec-11 10:14 UTC.
Position N 36°57' E 008°46'.
Warning: this ship's position is months out of date.

Water temperature 16.5 ° C

Date/timePositionNaut miles runAvg speedWind from/ knotsBaromVisibWave heightAir tempDewpointWater temp
2016-Mar-22 04:34N 36°57' E 008°46'0 0.0 16.5
2016-Mar-21 19:56N 36°57' E 008°46'0 0.0 17.0
2016-Mar-21 17:10N 36°57' E 008°46'0 0.0 16.5
2016-Mar-21 14:08N 36°57' E 008°46'0 2.0 15.3
2016-Mar-21 14:02N 36°58' E 008°45'0 0.1 15.3
2016-Mar-21 12:21N 36°58' E 008°46'1 0.6 16.0
2016-Mar-21 10:20N 36°58' E 008°44'0 0.0 14.5
2016-Mar-21 09:31N 36°58' E 008°44'0 0.2 14.6
2016-Mar-21 08:39N 36°58' E 008°45'6 3.3 14.6
2016-Mar-21 06:48N 37°04' E 008°46'0 0.1 15.8
2016-Mar-21 05:44N 37°04' E 008°46'0 5.8 15.8
2016-Mar-21 05:40N 37°05' E 008°46'0 0.0 15.8
2016-Mar-21 05:10N 37°05' E 008°46'0 0.0 15.8
2016-Mar-21 05:00N 37°05' E 008°46'0 0.2 15.8
2016-Mar-21 04:20N 37°04' E 008°46'0 0.0 15.8
2016-Mar-21 04:07N 37°04' E 008°46'0 0.0 15.7
2016-Mar-21 03:29N 37°04' E 008°46'0 0.1 15.8
2016-Mar-21 02:40N 37°04' E 008°47'0 0.1 15.8
2016-Mar-21 00:55N 37°05' E 008°46'0 0.0 15.9
2016-Mar-20 22:03N 37°05' E 008°46'0 4.9 16.0
2016-Mar-20 22:00N 37°05' E 008°47'0 0.1
2016-Mar-20 20:17N 37°05' E 008°46'0 3.4 15.9
2016-Mar-20 20:13N 37°05' E 008°47'0 0.0 15.9
2016-Mar-20 19:35N 37°05' E 008°47'0 0.0 16.0
2016-Mar-20 19:29N 37°05' E 008°47'0 0.1 16.1
2016-Mar-20 17:50N 37°04' E 008°47'0 0.0 16.4
2016-Mar-20 17:39N 37°04' E 008°47'1 2.8 16.5
2016-Mar-20 17:27N 37°05' E 008°46'0 0.0 16.5
2016-Mar-20 16:12N 37°05' E 008°46'0 0.6 16.6
2016-Mar-20 15:47N 37°04' E 008°46'0 0.0 16.7
2016-Mar-20 14:18N 37°04' E 008°46'0 0.0 16.4
2016-Mar-20 12:36N 37°05' E 008°46'0 4.6
2016-Mar-20 12:33N 37°04' E 008°46'0 0.0 16.4
2016-Mar-20 10:41N 37°04' E 008°47'0 0.1 16.0
2016-Mar-20 08:58N 37°04' E 008°46'1 0.6 15.5
2016-Mar-20 08:09N 37°05' E 008°46'0 0.0 15.5
2016-Mar-20 07:39N 37°05' E 008°46'1 8.7 15.5
2016-Mar-20 07:35N 37°05' E 008°46'0 0.0 15.5
2016-Mar-20 06:17N 37°05' E 008°46'0 0.6 15.5
2016-Mar-20 05:59N 37°04' E 008°46'0 0.0 15.5
2016-Mar-20 05:52N 37°04' E 008°46'0 0.0 15.5
2016-Mar-20 05:42N 37°04' E 008°46'0 0.0 15.6
2016-Mar-20 04:35N 37°04' E 008°46'0 0.2 15.5
2016-Mar-20 03:58N 37°05' E 008°46'0 0.0 15.6
2016-Mar-20 02:52N 37°05' E 008°46'0 0.0 15.7
2016-Mar-20 01:12N 37°04' E 008°46'0 0.1 15.5
2016-Mar-19 22:21N 37°05' E 008°47'0 0.0 15.6
2016-Mar-19 21:26N 37°05' E 008°47'0 0.1 15.7
2016-Mar-19 20:34N 37°05' E 008°46'0 0.2 15.8
2016-Mar-19 19:47N 37°05' E 008°47'0 0.0 15.6
2016-Mar-19 18:56N 37°05' E 008°47'0 0.0 15.7
2016-Mar-19 18:23N 37°05' E 008°47'0 0.8 15.7
2016-Mar-19 18:05N 37°04' E 008°47'0 0.0 15.7
2016-Mar-19 17:37N 37°04' E 008°47'0 0.5 15.9
2016-Mar-19 16:46N 37°05' E 008°46'0 0.0 16.0
2016-Mar-19 16:24N 37°05' E 008°46'0 0.3 16.1
2016-Mar-19 15:57N 37°05' E 008°46'0 0.2 16.2
2016-Mar-19 14:40N 37°04' E 008°46'0 0.0 16.2
2016-Mar-19 14:30N 37°04' E 008°46'0 1.4 16.2
2016-Mar-19 14:21N 37°05' E 008°46'0 0.3 16.2
2016-Mar-19 12:41N 37°04' E 008°47'4 1.7 16.1
2016-Mar-19 10:11N 37°00' E 008°48'0 0.0 15.6
2016-Mar-19 09:22N 37°00' E 008°48'0 0.0 15.6
2016-Mar-19 08:29N 37°00' E 008°48'0 0.0
2016-Mar-19 07:49N 37°00' E 008°48'   14.2

Dump ship's entire track history